Time;durP1;ratioP1;P1;durP2;ratioP2;P2;SDS_P1;SDS_P2;PMS_P1;PMS_P2;Temp;Humidity;BMP_temperature;BMP_pressure;BME280_temperature;BME280_humidity;BME280_pressure;Samples;Min_cycle;Max_cycle;Signal;HPM_P1;HPM_P2
2022/10/17 00:02:03;;;;;;;47.85;4.68;;;;;;;;;;6121501;23;20238;-90
2022/10/17 00:05:10;;;;;;;132.02;6.93;;;;;;;;;;6121395;23;20624;-89
2022/10/17 00:08:18;;;;;;;106.38;6.40;;;;;;;;;;6125662;23;20196;-90
2022/10/17 00:11:25;;;;;;;67.68;5.60;;;;;;;;;;6126819;23;20240;-90
2022/10/17 00:14:30;;;;;;;44.13;5.65;;;;;;;;;;6126489;23;20165;-90
2022/10/17 00:17:37;;;;;;;30.30;5.57;;;;;;;;;;6125562;23;20185;-90
2022/10/17 00:20:42;;;;;;;62.45;4.90;;;;;;;;;;6125478;23;20192;-89
2022/10/17 00:23:49;;;;;;;83.80;5.85;;;;;;;;;;6124743;23;20170;-90
2022/10/17 00:26:55;;;;;;;178.40;7.13;;;;;;;;;;6119678;23;20169;-90
2022/10/17 00:30:00;;;;;;;114.30;6.70;;;;;;;;;;6120577;23;20173;-90
2022/10/17 00:33:05;;;;;;;25.67;5.82;;;;;;;;;;6117976;23;20621;-91
2022/10/17 00:36:12;;;;;;;66.72;6.07;;;;;;;;;;6120257;23;20154;-89
2022/10/17 00:39:19;;;;;;;25.38;4.80;;;;;;;;;;6120319;23;20189;-90
2022/10/17 00:42:26;;;;;;;83.47;6.50;;;;;;;;;;6120765;23;20613;-91
2022/10/17 00:45:32;;;;;;;109.43;6.72;;;;;;;;;;6119824;23;20317;-91
2022/10/17 00:48:37;;;;;;;181.02;8.43;;;;;;;;;;6120110;23;20193;-91
2022/10/17 00:51:47;;;;;;;182.07;7.95;;;;;;;;;;6120906;23;20173;-90
2022/10/17 00:54:56;;;;;;;351.55;10.88;;;;;;;;;;6138157;23;20169;-89
2022/10/17 00:58:02;;;;;;;78.35;6.57;;;;;;;;;;6119300;23;20172;-89
2022/10/17 01:01:08;;;;;;;49.13;5.30;;;;;;;;;;6119208;23;20169;-91
2022/10/17 01:04:13;;;;;;;98.70;5.30;;;;;;;;;;6134842;23;20161;-89
2022/10/17 01:07:19;;;;;;;127.75;6.03;;;;;;;;;;6118429;23;20291;-89
2022/10/17 01:10:30;;;;;;;255.50;8.48;;;;;;;;;;6119079;23;20209;-90
2022/10/17 01:13:38;;;;;;;118.00;7.00;;;;;;;;;;6119408;23;20169;-89
2022/10/17 01:16:47;;;;;;;210.20;8.25;;;;;;;;;;6120321;23;20625;-90
2022/10/17 01:20:01;;;;;;;58.53;5.03;;;;;;;;;;6118619;23;20193;-90
2022/10/17 01:23:17;;;;;;;139.40;6.65;;;;;;;;;;6119079;23;20157;-90
2022/10/17 01:26:31;;;;;;;80.63;5.55;;;;;;;;;;6136447;23;20249;-90
2022/10/17 01:29:45;;;;;;;114.05;5.57;;;;;;;;;;6119921;23;20696;-89
2022/10/17 01:32:55;;;;;;;16.42;3.28;;;;;;;;;;6118968;23;20169;-90
2022/10/17 01:36:04;;;;;;;5.47;3.10;;;;;;;;;;6118964;23;20283;-90
2022/10/17 01:39:13;;;;;;;7.57;2.97;;;;;;;;;;6120666;23;20177;-89
2022/10/17 01:42:19;;;;;;;16.75;3.60;;;;;;;;;;6121064;23;20168;-90
2022/10/17 01:45:28;;;;;;;29.50;3.72;;;;;;;;;;6120915;23;20194;-91
2022/10/17 01:48:36;;;;;;;32.03;3.75;;;;;;;;;;6119782;23;20197;-89
2022/10/17 01:51:43;;;;;;;23.60;3.33;;;;;;;;;;6121844;23;20245;-90
2022/10/17 01:54:51;;;;;;;50.33;3.90;;;;;;;;;;6119565;23;20168;-88
2022/10/17 01:57:58;;;;;;;97.85;5.68;;;;;;;;;;6123718;23;20249;-91
2022/10/17 02:01:05;;;;;;;28.85;3.55;;;;;;;;;;6124173;23;20185;-90
2022/10/17 02:04:12;;;;;;;70.72;4.60;;;;;;;;;;6122946;23;20241;-90
2022/10/17 02:07:18;;;;;;;26.73;3.60;;;;;;;;;;6121467;23;20165;-89
2022/10/17 02:10:26;;;;;;;81.95;4.75;;;;;;;;;;6120865;23;20234;-89
2022/10/17 02:13:39;;;;;;;20.58;3.70;;;;;;;;;;6120644;23;20169;-90
2022/10/17 02:16:49;;;;;;;22.42;3.80;;;;;;;;;;6121146;23;20545;-91
2022/10/17 02:20:01;;;;;;;24.73;3.42;;;;;;;;;;6121453;23;20213;-91
2022/10/17 02:23:10;;;;;;;22.50;3.47;;;;;;;;;;6121996;23;20170;-90
2022/10/17 02:26:20;;;;;;;34.47;3.88;;;;;;;;;;6122013;23;20169;-89
2022/10/17 02:29:27;;;;;;;27.17;3.60;;;;;;;;;;6125089;23;20272;-89
2022/10/17 02:32:40;;;;;;;17.40;3.58;;;;;;;;;;6124637;23;20169;-89
2022/10/17 02:35:50;;;;;;;26.25;3.80;;;;;;;;;;6123533;23;20448;-89
2022/10/17 02:38:56;;;;;;;42.17;4.18;;;;;;;;;;6123895;23;20161;-90
2022/10/17 02:42:03;;;;;;;41.10;4.35;;;;;;;;;;6122967;23;20173;-92
2022/10/17 02:45:09;;;;;;;22.13;4.45;;;;;;;;;;6121183;23;20274;-90
2022/10/17 02:48:18;;;;;;;45.85;4.45;;;;;;;;;;6123326;23;20179;-90
2022/10/17 02:51:29;;;;;;;29.17;4.43;;;;;;;;;;6121635;23;20289;-90
2022/10/17 02:54:39;;;;;;;15.32;3.88;;;;;;;;;;6125508;23;20202;-90
2022/10/17 02:57:47;;;;;;;49.95;4.57;;;;;;;;;;6122510;23;20226;-89
2022/10/17 03:00:53;;;;;;;43.83;3.90;;;;;;;;;;6124332;23;20169;-90
2022/10/17 03:04:05;;;;;;;20.73;3.80;;;;;;;;;;6123427;23;20165;-90
2022/10/17 03:07:12;;;;;;;35.33;4.05;;;;;;;;;;6124920;23;20165;-89
2022/10/17 03:10:18;;;;;;;37.05;3.55;;;;;;;;;;6121499;23;20218;-91
2022/10/17 03:13:24;;;;;;;36.25;3.60;;;;;;;;;;6121405;23;20169;-91
2022/10/17 03:16:29;;;;;;;17.88;3.10;;;;;;;;;;6121701;23;20289;-91
2022/10/17 03:19:34;;;;;;;28.60;3.63;;;;;;;;;;6119489;23;20184;-91
2022/10/17 03:22:40;;;;;;;9.00;2.83;;;;;;;;;;6122185;23;20254;-87
2022/10/17 03:25:45;;;;;;;58.25;3.92;;;;;;;;;;6121510;23;20161;-89
2022/10/17 03:28:52;;;;;;;29.55;3.38;;;;;;;;;;6120860;23;20664;-90
2022/10/17 03:31:57;;;;;;;36.38;3.38;;;;;;;;;;6124248;23;20149;-90
2022/10/17 03:35:02;;;;;;;39.92;3.55;;;;;;;;;;6125387;23;20164;-90
2022/10/17 03:38:09;;;;;;;32.85;2.97;;;;;;;;;;6124958;23;20664;-89
2022/10/17 03:41:15;;;;;;;14.25;2.90;;;;;;;;;;6122682;23;20258;-90
2022/10/17 03:44:21;;;;;;;17.30;3.10;;;;;;;;;;6122528;23;20156;-90
2022/10/17 03:47:27;;;;;;;19.92;3.00;;;;;;;;;;6122192;23;20230;-91
2022/10/17 03:50:32;;;;;;;37.17;3.30;;;;;;;;;;6121442;23;20613;-89
2022/10/17 03:53:39;;;;;;;37.85;3.30;;;;;;;;;;6120980;23;20264;-89
2022/10/17 03:56:44;;;;;;;18.23;3.08;;;;;;;;;;6120614;23;20165;-90
2022/10/17 03:59:52;;;;;;;29.08;3.92;;;;;;;;;;6122997;23;20157;-90
2022/10/17 04:06:51;;;;;;;59.05;4.13;;;;;;;;;;6125296;23;20194;-90
2022/10/17 04:09:57;;;;;;;10.70;3.35;;;;;;;;;;6127159;23;20261;-88
2022/10/17 04:13:05;;;;;;;16.40;3.15;;;;;;;;;;6124949;23;20172;-89
2022/10/17 04:16:13;;;;;;;31.90;2.95;;;;;;;;;;6126916;23;20165;-90
2022/10/17 04:19:26;;;;;;;8.95;2.78;;;;;;;;;;6125398;23;20322;-89
2022/10/17 04:22:32;;;;;;;23.92;4.30;;;;;;;;;;6124034;23;20169;-88
2022/10/17 04:25:38;;;;;;;16.88;3.80;;;;;;;;;;6121882;23;20194;-90
2022/10/17 04:28:44;;;;;;;26.38;3.58;;;;;;;;;;6122111;23;20185;-90
2022/10/17 04:31:51;;;;;;;11.23;3.20;;;;;;;;;;6124914;23;20227;-89
2022/10/17 04:35:06;;;;;;;17.20;3.17;;;;;;;;;;6126016;23;20170;-90
2022/10/17 04:38:12;;;;;;;11.35;3.15;;;;;;;;;;6124430;23;20184;-89
2022/10/17 04:41:19;;;;;;;30.13;3.53;;;;;;;;;;6125299;23;20193;-90
2022/10/17 04:44:24;;;;;;;12.85;3.35;;;;;;;;;;6124222;23;20185;-89
2022/10/17 04:47:31;;;;;;;23.77;3.38;;;;;;;;;;6127166;23;20229;-90
2022/10/17 04:50:36;;;;;;;25.58;4.07;;;;;;;;;;6126785;23;20176;-89
2022/10/17 04:54:07;;;;;;;20.75;3.72;;;;;;;;;;6124157;23;20173;-89
2022/10/17 04:57:15;;;;;;;65.47;4.95;;;;;;;;;;6122565;23;20148;-90
2022/10/17 05:04:45;;;;;;;17.20;3.90;;;;;;;;;;6141148;23;20259;-91
2022/10/17 05:07:52;;;;;;;16.05;3.50;;;;;;;;;;6123114;23;20193;-90
2022/10/17 05:11:00;;;;;;;22.05;3.78;;;;;;;;;;6123905;23;20188;-89
2022/10/17 05:14:08;;;;;;;19.55;3.30;;;;;;;;;;6122872;23;20181;-90
2022/10/17 05:17:13;;;;;;;24.98;4.25;;;;;;;;;;6126002;23;20173;-89
2022/10/17 05:20:18;;;;;;;31.58;3.88;;;;;;;;;;6127255;23;20200;-91
2022/10/17 05:23:24;;;;;;;39.60;4.70;;;;;;;;;;6127790;23;20176;-89
2022/10/17 05:26:29;;;;;;;68.95;4.93;;;;;;;;;;6123074;23;20198;-90
2022/10/17 05:29:36;;;;;;;182.95;18.98;;;;;;;;;;6121330;23;20197;-88
2022/10/17 05:32:49;;;;;;;18.75;5.85;;;;;;;;;;6124291;23;20174;-90
2022/10/17 05:35:54;;;;;;;34.90;5.60;;;;;;;;;;6140972;23;20205;-90
2022/10/17 05:39:03;;;;;;;27.50;5.45;;;;;;;;;;6123149;23;20168;-90
2022/10/17 05:42:10;;;;;;;21.48;4.93;;;;;;;;;;6123715;23;20244;-91
2022/10/17 05:45:17;;;;;;;59.10;5.72;;;;;;;;;;6128134;23;20238;-90
2022/10/17 05:48:24;;;;;;;36.88;4.43;;;;;;;;;;6121636;23;20170;-89
2022/10/17 05:51:29;;;;;;;114.47;5.97;;;;;;;;;;6124512;23;20161;-91
2022/10/17 05:54:35;;;;;;;33.35;4.68;;;;;;;;;;6123169;23;20217;-90
2022/10/17 05:57:40;;;;;;;59.10;6.70;;;;;;;;;;6125728;23;20169;-92
2022/10/17 06:00:52;;;;;;;38.13;7.43;;;;;;;;;;6124717;23;20177;-90
2022/10/17 06:03:59;;;;;;;21.20;3.95;;;;;;;;;;6123699;23;20166;-90
2022/10/17 06:07:04;;;;;;;16.60;2.95;;;;;;;;;;6142496;23;20172;-89
2022/10/17 06:10:15;;;;;;;47.28;5.40;;;;;;;;;;6123963;23;20236;-90
2022/10/17 06:13:20;;;;;;;39.15;5.13;;;;;;;;;;6123290;23;20169;-90
2022/10/17 06:16:30;;;;;;;49.60;4.80;;;;;;;;;;6122495;23;20164;-90
2022/10/17 06:19:35;;;;;;;45.72;4.45;;;;;;;;;;6125068;23;20192;-88
2022/10/17 06:22:42;;;;;;;29.90;7.43;;;;;;;;;;6124159;23;20507;-88
2022/10/17 06:25:52;;;;;;;42.83;7.60;;;;;;;;;;6122086;23;20165;-90
2022/10/17 06:28:58;;;;;;;24.98;9.32;;;;;;;;;;6123425;23;20213;-90
2022/10/17 06:32:07;;;;;;;34.70;6.80;;;;;;;;;;6120551;23;20165;-91
2022/10/17 06:35:13;;;;;;;34.20;4.90;;;;;;;;;;6120796;23;20210;-90
2022/10/17 06:38:19;;;;;;;50.28;6.30;;;;;;;;;;6120595;23;20169;-91
2022/10/17 06:41:25;;;;;;;55.65;5.32;;;;;;;;;;6119021;23;20608;-89
2022/10/17 06:44:32;;;;;;;28.27;5.20;;;;;;;;;;6120557;23;20149;-91
2022/10/17 06:47:58;;;;;;;46.72;5.18;;;;;;;;;;6121062;23;20254;-88
2022/10/17 06:51:23;;;;;;;6.68;3.55;;;;;;;;;;6122121;23;20261;-89
2022/10/17 06:54:32;;;;;;;18.45;3.95;;;;;;;;;;6124384;23;20672;-90
2022/10/17 06:58:08;;;;;;;20.83;4.82;;;;;;;;;;6122398;23;20192;-90
2022/10/17 07:01:33;;;;;;;42.63;5.05;;;;;;;;;;6123349;23;20178;-88
2022/10/17 07:04:40;;;;;;;9.82;5.07;;;;;;;;;;6123225;23;20168;-90
2022/10/17 07:07:46;;;;;;;6.93;4.03;;;;;;;;;;6125660;23;20226;-89
2022/10/17 07:10:52;;;;;;;7.55;2.60;;;;;;;;;;6122923;23;20185;-90
2022/10/17 07:13:58;;;;;;;5.53;2.30;;;;;;;;;;6124555;23;20173;-89
2022/10/17 07:17:04;;;;;;;5.75;2.50;;;;;;;;;;6123987;23;20177;-90
2022/10/17 07:20:12;;;;;;;5.47;2.60;;;;;;;;;;6125226;23;20192;-90
2022/10/17 07:23:18;;;;;;;3.75;2.45;;;;;;;;;;6123926;23;20173;-90
2022/10/17 07:26:23;;;;;;;5.00;2.50;;;;;;;;;;6124973;23;20205;-90
2022/10/17 07:29:28;;;;;;;25.50;3.20;;;;;;;;;;6123499;23;20217;-90
2022/10/17 07:32:45;;;;;;;6.88;2.50;;;;;;;;;;6127254;23;20213;-89
2022/10/17 07:36:04;;;;;;;5.68;2.50;;;;;;;;;;6133409;23;20209;-91
2022/10/17 07:39:11;;;;;;;4.18;2.47;;;;;;;;;;6109614;23;20193;-90
2022/10/17 07:42:17;;;;;;;4.13;2.70;;;;;;;;;;6127649;23;20169;-90
2022/10/17 07:45:26;;;;;;;8.18;2.90;;;;;;;;;;6127647;23;20165;-90
2022/10/17 07:48:32;;;;;;;5.47;3.35;;;;;;;;;;6107905;23;20173;-90
2022/10/17 07:51:39;;;;;;;5.28;2.78;;;;;;;;;;6123081;23;20173;-90
2022/10/17 23:48:45;;;;;;;31.88;13.63;;;;;;;;;;6293992;22;350650;-94
2022/10/17 23:51:51;;;;;;;36.13;14.43;;;;;;;;;;6328185;22;20234;-93
2022/10/17 23:54:58;;;;;;;29.88;14.00;;;;;;;;;;6327271;22;20169;-92
2022/10/17 23:58:04;;;;;;;30.75;13.30;;;;;;;;;;6327713;22;20172;-94
